createdAt,value
2018-06-09T00:01:51.133Z,79.53
2018-06-09T00:06:45.711Z,80.31
2018-06-09T00:11:40.112Z,80.59
2018-06-09T00:16:34.545Z,80.27
2018-06-09T00:21:28.968Z,80.06
2018-06-09T00:26:23.408Z,79.63
2018-06-09T00:31:17.819Z,80.21
2018-06-09T00:36:12.068Z,80.63
2018-06-09T00:41:06.532Z,80.61
2018-06-09T00:46:00.968Z,79.50
2018-06-09T00:50:55.342Z,79.78
2018-06-09T00:55:49.774Z,80.17
2018-06-09T01:00:44.203Z,80.42
2018-06-09T01:05:38.595Z,79.72
2018-06-09T01:10:32.989Z,80.24
2018-06-09T01:15:27.420Z,80.28
2018-06-09T01:20:21.860Z,80.72
2018-06-09T01:25:16.271Z,81.24
2018-06-09T01:30:10.711Z,80.31
2018-06-09T01:35:05.365Z,79.90
2018-06-09T01:39:59.796Z,80.38
2018-06-09T01:44:54.184Z,80.45
2018-06-09T01:49:48.615Z,80.96
2018-06-09T01:54:43.013Z,81.29
2018-06-09T01:59:37.424Z,81.44
2018-06-09T02:04:31.848Z,81.54
2018-06-09T02:09:26.296Z,81.08
2018-06-09T02:14:20.700Z,81.98
2018-06-09T02:19:14.870Z,81.64
2018-06-09T02:24:09.344Z,81.29
2018-06-09T02:29:03.881Z,80.44
2018-06-09T02:33:58.360Z,81.68
2018-06-09T02:38:52.764Z,81.44
2018-06-09T02:43:47.217Z,82.05
2018-06-09T02:48:41.651Z,82.03
2018-06-09T02:53:36.068Z,82.04
2018-06-09T02:58:30.510Z,81.81
2018-06-09T03:03:24.919Z,81.70
2018-06-09T03:08:19.349Z,82.40
2018-06-09T03:13:13.769Z,82.73
2018-06-09T03:18:08.192Z,82.81
2018-06-09T03:23:02.729Z,82.49
2018-06-09T03:27:57.136Z,83.76
2018-06-09T03:32:51.556Z,83.28
2018-06-09T03:37:45.965Z,82.91
2018-06-09T03:42:40.367Z,83.00
2018-06-09T03:47:34.802Z,82.84
2018-06-09T03:52:29.227Z,81.39
2018-06-09T03:57:23.624Z,81.76
2018-06-09T04:02:18.233Z,82.13
2018-06-09T04:07:12.620Z,82.19
2018-06-09T04:12:07.041Z,81.54
2018-06-09T04:17:01.425Z,81.38
2018-06-09T04:21:55.845Z,80.20
2018-06-09T04:26:50.220Z,78.60
2018-06-09T04:31:44.624Z,79.22
2018-06-09T04:36:38.768Z,79.22
2018-06-09T04:41:34.084Z,79.50
2018-06-09T04:46:28.500Z,78.49
2018-06-09T04:51:22.933Z,77.56
2018-06-09T04:56:17.404Z,77.56
2018-06-09T05:01:11.812Z,76.93
2018-06-09T05:06:07.756Z,76.57
2018-06-09T05:11:02.232Z,75.39
2018-06-09T05:15:56.650Z,74.79
2018-06-09T05:20:51.082Z,73.80
2018-06-09T05:25:45.529Z,72.75
2018-06-09T05:30:39.961Z,71.00
2018-06-09T05:35:34.409Z,67.16
2018-06-09T05:40:28.796Z,59.54
2018-06-09T05:45:23.225Z,56.52
2018-06-09T05:50:17.817Z,57.47
2018-06-09T05:55:12.382Z,58.52
2018-06-09T06:00:07.230Z,58.09
2018-06-09T06:05:01.660Z,59.95
2018-06-09T06:09:56.075Z,61.66
2018-06-09T06:14:50.509Z,62.18
2018-06-09T06:19:44.925Z,63.97
2018-06-09T06:24:39.388Z,65.71
2018-06-09T06:29:33.882Z,66.27
2018-06-09T06:34:28.368Z,67.36
2018-06-09T06:39:22.820Z,65.22
2018-06-09T06:44:17.296Z,64.37
2018-06-09T06:49:11.748Z,63.92
2018-06-09T06:54:06.263Z,63.51
2018-06-09T06:59:00.726Z,64.29
2018-06-09T07:03:55.175Z,65.40
2018-06-09T07:08:49.604Z,65.14
2018-06-09T07:13:44.065Z,64.01
2018-06-09T07:18:38.492Z,63.02
2018-06-09T07:23:32.907Z,63.05
2018-06-09T07:28:27.311Z,62.15
2018-06-09T07:33:21.824Z,63.46
2018-06-09T07:38:16.270Z,64.55
2018-06-09T07:43:10.715Z,64.44
2018-06-09T07:48:05.234Z,61.66
2018-06-09T07:52:59.736Z,59.83
2018-06-09T07:57:54.167Z,58.89
2018-06-09T08:02:48.619Z,59.15
2018-06-09T08:07:43.073Z,59.28
2018-06-09T08:12:37.528Z,57.16
2018-06-09T08:17:31.955Z,58.16
2018-06-09T08:22:26.390Z,55.72
2018-06-09T08:27:20.845Z,54.49
2018-06-09T08:32:15.304Z,54.47
2018-06-09T08:37:09.729Z,53.13
2018-06-09T08:42:04.212Z,54.42
2018-06-09T08:46:58.614Z,52.83
2018-06-09T08:51:53.021Z,51.60
2018-06-09T08:56:47.469Z,51.50
2018-06-09T09:01:41.943Z,51.82
2018-06-09T09:06:36.378Z,52.46
2018-06-09T09:11:30.841Z,52.15
2018-06-09T09:16:25.422Z,54.06
2018-06-09T09:21:19.832Z,55.12
2018-06-09T09:26:14.292Z,55.06
2018-06-09T09:31:08.672Z,55.97
2018-06-09T09:36:03.111Z,55.60
2018-06-09T09:40:57.525Z,55.91
2018-06-09T09:45:51.940Z,55.55
2018-06-09T09:50:46.412Z,54.40
2018-06-09T09:55:40.842Z,54.42
2018-06-09T10:00:37.315Z,53.22
2018-06-09T10:05:31.771Z,53.81
2018-06-09T10:10:26.212Z,53.57
2018-06-09T10:15:20.663Z,51.00
2018-06-09T10:20:15.101Z,49.44
2018-06-09T10:25:09.549Z,48.25
2018-06-09T10:30:04.029Z,45.96
2018-06-09T10:34:58.445Z,45.68
2018-06-09T10:39:52.846Z,45.87
2018-06-09T10:44:47.283Z,45.78
2018-06-09T10:49:41.722Z,45.01
2018-06-09T10:54:36.216Z,43.71
2018-06-09T10:59:30.660Z,42.62
2018-06-09T11:04:25.161Z,43.43
2018-06-09T11:09:19.571Z,42.92
2018-06-09T11:14:13.990Z,43.93
2018-06-09T11:19:08.381Z,43.73
2018-06-09T11:24:02.827Z,42.90
2018-06-09T11:28:57.316Z,42.52
2018-06-09T11:33:51.458Z,42.59
2018-06-09T11:38:45.884Z,41.68
2018-06-09T11:43:40.295Z,41.25
2018-06-09T11:48:34.692Z,41.41
2018-06-09T11:53:29.111Z,42.14
2018-06-09T11:58:23.525Z,42.03
2018-06-09T12:03:17.996Z,42.42
2018-06-09T12:08:12.408Z,40.74
2018-06-09T12:13:07.105Z,42.01
2018-06-09T12:18:01.543Z,42.86
2018-06-09T12:22:56.034Z,41.99
2018-06-09T12:27:50.482Z,43.26
2018-06-09T12:32:45.957Z,43.57
2018-06-09T12:37:40.358Z,42.32
2018-06-09T12:42:34.822Z,45.17
2018-06-09T12:47:29.288Z,44.37
2018-06-09T12:52:23.792Z,44.90
2018-06-09T12:57:18.218Z,43.80
2018-06-09T13:02:12.647Z,44.95
2018-06-09T13:07:07.566Z,43.34
2018-06-09T13:12:02.028Z,43.25
2018-06-09T13:16:56.441Z,40.88
2018-06-09T13:21:51.513Z,40.69
2018-06-09T13:26:46.006Z,40.17
2018-06-09T13:31:40.440Z,42.44
2018-06-09T13:36:34.898Z,41.63
2018-06-09T13:41:29.345Z,40.37
2018-06-09T13:46:23.785Z,39.95
2018-06-09T13:51:17.960Z,39.13
2018-06-09T13:56:12.396Z,38.53
2018-06-09T14:01:07.049Z,39.94
2018-06-09T14:06:01.466Z,39.96
2018-06-09T14:10:55.955Z,41.34
2018-06-09T14:15:50.360Z,42.01
2018-06-09T14:20:44.784Z,41.62
2018-06-09T14:25:39.200Z,39.36
2018-06-09T14:30:33.629Z,39.82
2018-06-09T14:35:28.064Z,39.64
2018-06-09T14:40:22.497Z,38.78
2018-06-09T14:45:17.068Z,37.51
2018-06-09T14:50:11.564Z,37.09
2018-06-09T14:55:06.060Z,36.95
2018-06-09T15:00:00.572Z,35.99
2018-06-09T15:04:55.067Z,35.85
2018-06-09T15:09:49.231Z,37.58
2018-06-09T15:14:43.661Z,38.49
2018-06-09T15:19:38.153Z,38.18
2018-06-09T15:24:32.521Z,40.12
2018-06-09T15:29:26.977Z,40.60
2018-06-09T15:34:21.393Z,40.31
2018-06-09T15:39:15.854Z,41.54
2018-06-09T15:44:10.296Z,42.07
2018-06-09T15:49:04.815Z,40.04
2018-06-09T15:53:59.235Z,40.05
2018-06-09T15:58:53.732Z,40.12
2018-06-09T16:03:48.181Z,41.19
2018-06-09T16:08:42.646Z,41.08
2018-06-09T16:13:37.066Z,39.97
2018-06-09T16:18:31.542Z,39.73
2018-06-09T16:23:26.053Z,40.40
2018-06-09T16:28:20.498Z,42.01
2018-06-09T16:33:14.928Z,46.21
2018-06-09T16:38:09.095Z,46.07
2018-06-09T16:43:03.973Z,47.52
2018-06-09T16:47:58.403Z,49.40
2018-06-09T16:52:52.893Z,48.50
2018-06-09T16:57:47.404Z,50.29
2018-06-09T17:02:41.816Z,49.15
2018-06-09T17:07:37.046Z,49.88
2018-06-09T17:12:31.461Z,49.95
2018-06-09T17:17:25.898Z,50.48
2018-06-09T17:22:20.345Z,51.41
2018-06-09T17:27:14.771Z,52.57
2018-06-09T17:32:09.254Z,52.34
2018-06-09T17:37:03.958Z,52.78
2018-06-09T17:41:58.452Z,50.78
2018-06-09T17:46:52.901Z,50.16
2018-06-09T17:51:47.364Z,50.46
2018-06-09T17:56:41.852Z,50.94
2018-06-09T18:01:36.255Z,51.41
2018-06-09T18:06:30.724Z,51.89
2018-06-09T18:11:25.213Z,53.06
2018-06-09T18:16:19.736Z,52.82
2018-06-09T18:21:14.246Z,53.30
2018-06-09T18:26:08.822Z,54.56
2018-06-09T18:31:03.315Z,55.45
2018-06-09T18:35:57.728Z,55.93
2018-06-09T18:40:52.178Z,56.65
2018-06-09T18:45:47.579Z,55.98
2018-06-09T18:50:42.208Z,56.00
2018-06-09T18:55:36.736Z,56.86
2018-06-09T19:00:31.179Z,53.76
2018-06-09T19:05:25.711Z,52.92
2018-06-09T19:10:20.163Z,55.43
2018-06-09T19:15:14.636Z,57.57
2018-06-09T19:20:09.342Z,58.54
2018-06-09T19:25:04.072Z,59.00
2018-06-09T19:29:58.752Z,59.40
2018-06-09T19:34:53.227Z,58.74
2018-06-09T19:39:47.674Z,60.16
2018-06-09T19:44:42.119Z,59.62
2018-06-09T19:49:36.565Z,59.57
2018-06-09T19:54:31.044Z,60.96
2018-06-09T19:59:25.468Z,61.34
2018-06-09T20:04:19.922Z,60.85
2018-06-09T20:09:14.381Z,61.27
2018-06-09T20:14:08.989Z,62.04
2018-06-09T20:19:03.602Z,61.96
2018-06-09T20:23:58.086Z,63.16
2018-06-09T20:28:53.150Z,63.45
2018-06-09T20:35:17.090Z,63.90
2018-06-09T20:40:11.605Z,63.67
2018-06-09T20:45:06.350Z,64.40
2018-06-09T20:50:00.993Z,63.71
2018-06-09T20:54:55.511Z,64.50
2018-06-09T20:59:50.143Z,64.26
2018-06-09T21:04:45.652Z,63.99
2018-06-09T21:09:40.376Z,64.93
2018-06-09T21:14:35.012Z,64.93
2018-06-09T21:19:29.648Z,64.81
2018-06-09T21:24:24.883Z,65.85
2018-06-09T21:29:24.761Z,66.53
2018-06-09T21:34:41.128Z,66.02
2018-06-09T21:41:46.224Z,65.99
2018-06-09T21:46:44.766Z,66.31
2018-06-09T21:51:39.300Z,67.60
2018-06-09T21:56:33.817Z,67.18
2018-06-09T22:01:28.247Z,67.92
2018-06-09T22:06:22.398Z,68.27
2018-06-09T22:11:16.869Z,67.76
2018-06-09T22:16:12.088Z,68.29
2018-06-09T22:21:06.587Z,68.61
2018-06-09T22:26:01.081Z,68.06
2018-06-09T22:30:55.518Z,68.79
2018-06-09T22:35:50.094Z,68.51
2018-06-09T22:40:44.518Z,67.74
2018-06-09T22:45:38.929Z,67.94
2018-06-09T22:50:33.408Z,68.81
2018-06-09T22:55:27.908Z,68.84
2018-06-09T23:00:37.077Z,69.38
2018-06-09T23:05:31.614Z,70.56
2018-06-09T23:10:26.204Z,70.60
2018-06-09T23:15:21.139Z,70.34
2018-06-09T23:20:15.746Z,71.24
2018-06-09T23:25:10.243Z,72.00
2018-06-09T23:30:04.781Z,71.87
2018-06-09T23:34:59.273Z,72.84
2018-06-09T23:39:53.807Z,73.60
2018-06-09T23:44:48.388Z,74.00
2018-06-09T23:49:42.806Z,73.68
2018-06-09T23:54:37.228Z,73.39
2018-06-09T23:59:31.905Z,72.64
